EZY112X EHAM-EKCH
Flight info
| Callsign | EZY112X |
|---|---|
| Flight time | N/A |
| Altitude | 37000 |
| Route | ANDIK N873 JUIST DCT ROCZO DCT DOSUR DCT TALSA P729 TUDLO |
| Aircraft | A20N/M-SDE2E3FGHIRWXY/LB1 |
Departure
| Time | 2026-05-04 17:17 |
|---|---|
| Airport | Amsterdam Airport Schiphol (EHAM) |
Arrival
| Time | N/A |
|---|---|
| Airport | Copenhagen Kastrup Airport (EKCH) |
| Time | Latitude | Longitude | Altitude | Speed | Heading |
|---|---|---|---|---|---|
| 2026-05-04 16:40 | 52.30988 | 4.75353 | 0 ft | 0 kts | 149° |
| 2026-05-04 17:03 | 52.30999 | 4.75341 | 0 ft | 2 kts | 144° |
| 2026-05-04 17:03 | 52.31013 | 4.75326 | 1 ft | 2 kts | 146° |
| 2026-05-04 17:03 | 52.31018 | 4.75280 | 0 ft | 1 kts | 72° |
| 2026-05-04 17:04 | 52.31017 | 4.75274 | 0 ft | 0 kts | 73° |
| 2026-05-04 17:07 | 52.31032 | 4.75316 | 0 ft | 7 kts | 61° |
| 2026-05-04 17:07 | 52.31052 | 4.75367 | 0 ft | 9 kts | 57° |
| 2026-05-04 17:07 | 52.31128 | 4.75494 | 1 ft | 14 kts | 8° |
| 2026-05-04 17:07 | 52.31223 | 4.75488 | 2 ft | 13 kts | 355° |
| 2026-05-04 17:08 | 52.31317 | 4.75480 | 1 ft | 14 kts | 356° |
| 2026-05-04 17:08 | 52.31510 | 4.75404 | -3 ft | 14 kts | 278° |
| 2026-05-04 17:08 | 52.31506 | 4.75232 | -4 ft | 16 kts | 266° |
| 2026-05-04 17:09 | 52.31501 | 4.75069 | -1 ft | 13 kts | 267° |
| 2026-05-04 17:09 | 52.31496 | 4.74930 | 0 ft | 14 kts | 267° |
| 2026-05-04 17:09 | 52.31494 | 4.74860 | 0 ft | 16 kts | 267° |
| 2026-05-04 17:10 | 52.31479 | 4.74403 | 4 ft | 22 kts | 268° |
| 2026-05-04 17:10 | 52.31878 | 4.74327 | -2 ft | 23 kts | 3° |
| 2026-05-04 17:11 | 52.32014 | 4.74309 | -3 ft | 16 kts | 320° |
| 2026-05-04 17:11 | 52.32036 | 4.74148 | -3 ft | 15 kts | 271° |
| 2026-05-04 17:11 | 52.32047 | 4.73790 | 3 ft | 16 kts | 274° |
| 2026-05-04 17:12 | 52.32055 | 4.73603 | 4 ft | 17 kts | 275° |
| 2026-05-04 17:12 | 52.32219 | 4.73174 | 2 ft | 28 kts | 320° |
| 2026-05-04 17:13 | 52.32690 | 4.72500 | 4 ft | 23 kts | 313° |
| 2026-05-04 17:14 | 52.32991 | 4.71943 | 0 ft | 24 kts | 311° |
| 2026-05-04 17:14 | 52.33101 | 4.71737 | 1 ft | 24 kts | 312° |
| 2026-05-04 17:14 | 52.33058 | 4.71380 | 2 ft | 18 kts | 220° |
| 2026-05-04 17:15 | 52.32962 | 4.71248 | 0 ft | 18 kts | 221° |
| 2026-05-04 17:15 | 52.32876 | 4.70920 | 0 ft | 14 kts | 298° |
| 2026-05-04 17:16 | 52.33006 | 4.70897 | -3 ft | 0 kts | 3° |
| 2026-05-04 17:16 | 52.33205 | 4.70917 | -5 ft | 63 kts | 2° |
| 2026-05-04 17:17 | 52.33865 | 4.70976 | 2 ft | 126 kts | 3° |
| 2026-05-04 17:17 | 52.37140 | 4.71295 | 1431 ft | 174 kts | 1° |
| 2026-05-04 17:18 | 52.38382 | 4.71405 | 2033 ft | 187 kts | 360° |
| 2026-05-04 17:18 | 52.41337 | 4.71657 | 2886 ft | 244 kts | 0° |
| 2026-05-04 17:19 | 52.44938 | 4.71996 | 4403 ft | 267 kts | 1° |
| 2026-05-04 17:19 | 52.48711 | 4.72367 | 6296 ft | 275 kts | 1° |
| 2026-05-04 17:20 | 52.52571 | 4.73059 | 8044 ft | 286 kts | 16° |
| 2026-05-04 17:20 | 52.55408 | 4.77565 | 9732 ft | 299 kts | 68° |
| 2026-05-04 17:20 | 52.56092 | 4.80793 | 10408 ft | 310 kts | 73° |
| 2026-05-04 17:21 | 52.57408 | 4.88023 | 11297 ft | 344 kts | 73° |
| 2026-05-04 17:21 | 52.59078 | 4.95553 | 12808 ft | 356 kts | 59° |
| 2026-05-04 17:22 | 52.60500 | 4.98926 | 13617 ft | 361 kts | 52° |
| 2026-05-04 17:22 | 52.62060 | 5.02205 | 14345 ft | 366 kts | 51° |
| 2026-05-04 17:23 | 52.66883 | 5.12207 | 16464 ft | 379 kts | 51° |
| 2026-05-04 17:23 | 52.68528 | 5.15648 | 17159 ft | 384 kts | 51° |
| 2026-05-04 17:23 | 52.71851 | 5.22626 | 18468 ft | 394 kts | 52° |
| 2026-05-04 17:24 | 52.73548 | 5.26201 | 19037 ft | 398 kts | 52° |
| 2026-05-04 17:25 | 52.75282 | 5.29859 | 19614 ft | 402 kts | 52° |
| 2026-05-04 17:25 | 52.78762 | 5.37218 | 20787 ft | 410 kts | 52° |
| 2026-05-04 17:26 | 52.82285 | 5.44694 | 21934 ft | 418 kts | 53° |
| 2026-05-04 17:26 | 52.87708 | 5.56245 | 23594 ft | 428 kts | 53° |
| 2026-05-04 17:27 | 52.91388 | 5.64113 | 24451 ft | 435 kts | 53° |
| 2026-05-04 17:27 | 52.95116 | 5.72108 | 25285 ft | 441 kts | 54° |
| 2026-05-04 17:28 | 52.98876 | 5.80197 | 26072 ft | 447 kts | 54° |
| 2026-05-04 17:29 | 53.04666 | 5.92521 | 27172 ft | 457 kts | 53° |
| 2026-05-04 17:29 | 53.10643 | 6.05049 | 28240 ft | 465 kts | 50° |
| 2026-05-04 17:30 | 53.17084 | 6.17386 | 29229 ft | 473 kts | 50° |
| 2026-05-04 17:31 | 53.21401 | 6.25746 | 29861 ft | 478 kts | 51° |
| 2026-05-04 17:31 | 53.27943 | 6.38520 | 30641 ft | 486 kts | 50° |
| 2026-05-04 17:32 | 53.32317 | 6.47108 | 31196 ft | 488 kts | 50° |
| 2026-05-04 17:33 | 53.38916 | 6.60123 | 32148 ft | 488 kts | 50° |
| 2026-05-04 17:33 | 53.41109 | 6.64466 | 32467 ft | 488 kts | 50° |
| 2026-05-04 17:34 | 53.47667 | 6.77499 | 33366 ft | 488 kts | 49° |
| 2026-05-04 17:34 | 53.49852 | 6.81855 | 33669 ft | 488 kts | 49° |
| 2026-05-04 17:35 | 53.56389 | 6.94940 | 34523 ft | 485 kts | 49° |
| 2026-05-04 17:35 | 53.60704 | 7.03617 | 35120 ft | 480 kts | 49° |
| 2026-05-04 17:35 | 53.62846 | 7.07934 | 35387 ft | 479 kts | 49° |
| 2026-05-04 17:36 | 53.64955 | 7.12191 | 35636 ft | 478 kts | 49° |
| 2026-05-04 17:36 | 53.67087 | 7.16504 | 35864 ft | 477 kts | 49° |
| 2026-05-04 17:36 | 53.69207 | 7.20799 | 36095 ft | 476 kts | 49° |
| 2026-05-04 17:36 | 53.71330 | 7.25106 | 36339 ft | 475 kts | 49° |
| 2026-05-04 17:37 | 53.73439 | 7.29393 | 36539 ft | 474 kts | 49° |